Terminal Aerodrome Forecast
Issued by NWS Charleston, WV

Current Version | Previous Version | Text Only | Print | Product List | Glossary Off
Versions: 1 2 3 4 5 6 7 8 9 10 11 12 13 14 15 16 17 18 19 20 21 22 23

105
FTUS41 KRLX 211457 AAA
TAFPKB
TAF AMD
KPKB 211457Z 2115/2212 24007KT P6SM SCT100 SCT250
      TEMPO 2115/2116 BKN100
     FM211800 24008G16KT P6SM SCT080
     FM212200 29004KT P6SM SCT090=

USA.gov is the U.S. government's official web portal to all federal, state and local government web resources and services.